Time;durP1;ratioP1;P1;durP2;ratioP2;P2;SDS_P1;SDS_P2;PMS_P1;PMS_P2;Temp;Humidity;BMP_temperature;BMP_pressure;BME280_temperature;BME280_humidity;BME280_pressure;Samples;Min_cycle;Max_cycle;Signal;HPM_P1;HPM_P2
2021/12/09 00:01:39;;;;;;;48.70;26.97;;;;;;;-2.68;80.03;98198.00;2233621;79;21041;-78
2021/12/09 00:04:41;;;;;;;51.37;26.73;;;;;;;-2.66;79.90;98187.47;2207659;79;21049;-79
2021/12/09 00:07:42;;;;;;;63.30;28.23;;;;;;;-2.63;79.89;98186.75;2236604;79;21057;-80
2021/12/09 00:10:43;;;;;;;54.50;27.30;;;;;;;-2.61;79.96;98186.43;2225299;79;21042;-78
2021/12/09 00:13:43;;;;;;;49.43;25.80;;;;;;;-2.58;79.81;98187.50;2214374;79;20993;-81
2021/12/09 00:16:44;;;;;;;52.90;26.03;;;;;;;-2.60;79.59;98179.28;2227302;79;21006;-79
2021/12/09 00:19:44;;;;;;;49.50;24.63;;;;;;;-2.65;79.58;98183.23;2251824;78;20966;-79
2021/12/09 00:22:45;;;;;;;43.80;23.70;;;;;;;-2.71;79.54;98190.17;2253091;78;21373;-80
2021/12/09 00:25:46;;;;;;;52.10;24.93;;;;;;;-2.77;79.72;98188.98;2211848;78;21315;-81
2021/12/09 00:28:46;;;;;;;46.90;24.60;;;;;;;-2.84;79.69;98194.16;2206971;79;21017;-79
2021/12/09 00:31:50;;;;;;;49.20;25.77;;;;;;;-2.91;79.86;98180.19;2214071;79;21008;-79
2021/12/09 00:34:52;;;;;;;45.40;22.77;;;;;;;-2.95;80.11;98191.43;2205331;79;21373;-79
2021/12/09 00:37:54;;;;;;;45.73;25.27;;;;;;;-2.96;80.21;98193.50;2219456;79;21413;-79
2021/12/09 00:40:55;;;;;;;51.60;26.70;;;;;;;-2.95;80.19;98192.31;2244848;79;21065;-78
2021/12/09 00:43:55;;;;;;;51.03;24.03;;;;;;;-2.93;80.28;98192.39;2215001;79;21005;-79
2021/12/09 00:46:56;;;;;;;44.47;23.83;;;;;;;-2.89;80.24;98184.09;2211011;79;20990;-80
2021/12/09 00:49:56;;;;;;;48.43;23.57;;;;;;;-2.86;80.24;98181.70;2232995;78;20989;-79
2021/12/09 00:52:57;;;;;;;45.57;25.80;;;;;;;-2.83;80.16;98181.87;2244722;79;21028;-78
2021/12/09 00:55:57;;;;;;;54.33;26.90;;;;;;;-2.81;80.13;98181.55;2224636;78;21335;-79
2021/12/09 00:58:58;;;;;;;46.57;24.73;;;;;;;-2.79;80.04;98172.30;2248695;79;20958;-78
2021/12/09 01:01:58;;;;;;;44.10;23.10;;;;;;;-2.71;80.12;98169.74;2214956;78;20957;-78
2021/12/09 01:04:59;;;;;;;49.00;25.97;;;;;;;-2.68;79.92;98171.58;2252159;79;21376;-79
2021/12/09 01:07:59;;;;;;;52.27;27.13;;;;;;;-2.70;79.87;98168.94;2220830;78;20958;-80
2021/12/09 01:11:01;;;;;;;49.97;25.53;;;;;;;-2.69;79.86;98170.70;2207280;79;20972;-79
2021/12/09 01:14:01;;;;;;;53.83;27.30;;;;;;;-2.64;79.96;98166.70;2212393;79;21078;-79
2021/12/09 01:17:02;;;;;;;53.13;27.07;;;;;;;-2.59;79.92;98164.02;2216540;79;21033;-79
2021/12/09 01:20:02;;;;;;;50.07;24.83;;;;;;;-2.61;79.75;98164.31;2215576;78;21005;-78
2021/12/09 01:23:03;;;;;;;54.73;27.67;;;;;;;-2.70;79.59;98160.00;2208502;79;20993;-79
2021/12/09 01:26:06;;;;;;;59.03;28.00;;;;;;;-2.78;79.81;98163.83;2247788;79;21088;-79
2021/12/09 01:29:15;;;;;;;54.43;26.57;;;;;;;-2.79;79.91;98160.80;2210679;79;21061;-80
2021/12/09 01:32:13;;;;;;;50.90;25.30;;;;;;;-2.76;80.01;98161.36;2241580;79;21402;-79
2021/12/09 01:35:11;;;;;;;47.70;24.50;;;;;;;-2.75;80.02;98158.88;2233664;79;21100;-79
2021/12/09 01:38:14;;;;;;;54.73;28.40;;;;;;;-2.74;80.08;98150.42;2241159;79;21401;-79
2021/12/09 01:41:14;;;;;;;50.80;25.37;;;;;;;-2.71;80.17;98160.80;2231244;79;21081;-78
2021/12/09 01:44:15;;;;;;;51.13;24.80;;;;;;;-2.68;80.13;98158.80;2213780;79;20982;-79
2021/12/09 01:47:15;;;;;;;50.63;25.37;;;;;;;-2.63;80.18;98151.86;2234606;78;21400;-79
2021/12/09 01:50:16;;;;;;;51.83;27.47;;;;;;;-2.64;79.90;98151.78;2233004;78;20994;-79
2021/12/09 01:53:16;;;;;;;48.37;24.90;;;;;;;-2.66;79.96;98147.87;2254103;78;21001;-79
2021/12/09 01:56:21;;;;;;;51.47;24.63;;;;;;;-2.72;79.93;98133.50;2244194;78;20981;-79
2021/12/09 01:59:19;;;;;;;54.00;27.87;;;;;;;-2.79;80.07;98134.37;2241511;79;21101;-79
2021/12/09 02:02:20;;;;;;;50.87;25.93;;;;;;;-2.76;80.24;98131.58;2203449;79;21373;-78
2021/12/09 02:05:20;;;;;;;54.77;28.10;;;;;;;-2.77;80.24;98128.95;2221240;79;20973;-78
2021/12/09 02:08:20;;;;;;;59.83;29.53;;;;;;;-2.77;80.25;98131.11;2194540;79;21024;-80
2021/12/09 02:11:21;;;;;;;58.13;26.67;;;;;;;-2.78;80.36;98124.24;2240544;79;21040;-78
2021/12/09 02:14:21;;;;;;;55.63;28.00;;;;;;;-2.76;80.37;98130.30;2232167;79;20973;-79
2021/12/09 02:17:22;;;;;;;43.70;22.23;;;;;;;-2.72;80.33;98140.28;2221622;78;21433;-79
2021/12/09 02:20:23;;;;;;;63.20;29.67;;;;;;;-2.71;80.21;98132.70;2200333;79;20990;-78
2021/12/09 02:23:23;;;;;;;50.00;25.17;;;;;;;-2.83;80.14;98138.45;2229899;79;21025;-79
2021/12/09 02:26:24;;;;;;;50.00;23.20;;;;;;;-2.92;80.45;98129.91;2244821;79;21037;-80
2021/12/09 02:29:24;;;;;;;52.27;23.40;;;;;;;-2.96;80.70;98150.09;2238330;79;21353;-78
2021/12/09 02:32:25;;;;;;;46.97;22.17;;;;;;;-2.96;80.92;98145.86;2232430;79;21021;-79
2021/12/09 02:35:25;;;;;;;54.30;26.70;;;;;;;-2.97;80.84;98139.40;2229867;79;21005;-80
2021/12/09 02:38:26;;;;;;;50.87;26.37;;;;;;;-2.95;80.90;98142.91;2205951;79;21065;-80
2021/12/09 02:41:27;;;;;;;55.33;25.67;;;;;;;-2.90;80.72;98169.17;2249839;79;21420;-80
2021/12/09 02:44:27;;;;;;;53.90;26.37;;;;;;;-2.89;80.74;98168.38;2223603;79;21634;-80
2021/12/09 02:47:28;;;;;;;61.07;28.33;;;;;;;-2.90;80.76;98158.08;2202562;79;21033;-79
2021/12/09 02:50:28;;;;;;;49.23;25.70;;;;;;;-2.98;81.10;98152.97;2210780;78;21005;-79
2021/12/09 02:53:29;;;;;;;50.73;24.70;;;;;;;-3.09;81.09;98149.84;2219909;79;21008;-79
2021/12/09 02:56:29;;;;;;;52.97;26.60;;;;;;;-3.09;81.40;98152.39;2223219;79;21028;-79
2021/12/09 02:59:32;;;;;;;59.27;28.23;;;;;;;-3.18;81.42;98153.17;2202013;79;21416;-79
2021/12/09 03:02:32;;;;;;;53.30;26.30;;;;;;;-3.16;81.55;98149.43;2233172;79;21044;-79
2021/12/09 03:05:33;;;;;;;100.33;48.47;;;;;;;-3.14;81.44;98151.67;2240051;79;20965;-80
2021/12/09 03:08:37;;;;;;;55.80;28.43;;;;;;;-3.10;81.51;98148.48;2213714;79;21342;-78
2021/12/09 03:11:38;;;;;;;54.88;26.68;;;;;;;-3.06;81.55;98141.07;2240617;79;21024;-80
2021/12/09 03:14:39;;;;;;;52.77;26.70;;;;;;;-3.01;81.45;98148.97;2225529;79;21369;-80
2021/12/09 03:17:40;;;;;;;62.20;29.77;;;;;;;-2.99;81.45;98148.66;2218943;78;20982;-79
2021/12/09 03:20:40;;;;;;;53.67;26.90;;;;;;;-3.03;81.39;98145.46;2238884;79;20981;-79
2021/12/09 03:23:42;;;;;;;58.80;29.43;;;;;;;-2.99;81.62;98139.32;2243478;79;21021;-79
2021/12/09 03:26:42;;;;;;;62.83;29.03;;;;;;;-2.94;81.39;98135.73;2220213;79;21020;-79
2021/12/09 03:29:43;;;;;;;57.87;27.67;;;;;;;-2.95;81.23;98122.48;2224705;79;20966;-78
2021/12/09 03:32:43;;;;;;;61.17;28.30;;;;;;;-2.95;81.30;98133.97;2229040;78;21001;-79
2021/12/09 03:35:44;;;;;;;56.27;26.97;;;;;;;-2.93;81.28;98129.42;2216009;78;21017;-78
2021/12/09 03:38:44;;;;;;;67.17;29.27;;;;;;;-2.87;81.32;98130.55;2233489;79;21096;-79
2021/12/09 03:41:45;;;;;;;58.47;30.00;;;;;;;-2.83;81.22;98134.62;2245532;79;20966;-78
2021/12/09 03:44:45;;;;;;;59.13;27.87;;;;;;;-2.82;81.14;98122.73;2207169;79;21036;-78
2021/12/09 03:47:46;;;;;;;53.97;26.03;;;;;;;-2.82;81.17;98119.77;2229477;79;21357;-78
2021/12/09 03:50:46;;;;;;;59.13;28.87;;;;;;;-2.84;81.03;98101.33;2254911;78;21024;-79
2021/12/09 03:53:47;;;;;;;57.83;30.10;;;;;;;-2.89;81.21;98110.03;2238879;78;20970;-78
2021/12/09 03:56:48;;;;;;;55.37;26.83;;;;;;;-2.92;81.34;98106.92;2205243;79;21072;-78
2021/12/09 03:59:48;;;;;;;56.70;26.73;;;;;;;-2.86;81.40;98097.42;2209571;79;20990;-78
2021/12/09 04:02:49;;;;;;;52.37;24.90;;;;;;;-2.81;81.17;98090.88;2213365;79;21036;-78
2021/12/09 04:05:50;;;;;;;55.23;27.10;;;;;;;-2.86;81.11;98094.87;2249747;79;20977;-78
2021/12/09 04:08:51;;;;;;;50.67;24.30;;;;;;;-2.84;81.19;98100.06;2248022;79;20966;-78
2021/12/09 04:11:52;;;;;;;53.43;26.47;;;;;;;-2.83;81.16;98123.52;2224252;79;20950;-78
2021/12/09 04:14:52;;;;;;;55.27;25.63;;;;;;;-2.82;81.09;98129.98;2249220;79;20989;-79
2021/12/09 04:17:53;;;;;;;52.40;24.83;;;;;;;-2.76;81.00;98141.80;2233583;78;20970;-80
2021/12/09 04:20:53;;;;;;;72.57;34.63;;;;;;;-2.79;80.95;98142.92;2223512;78;21504;-79
2021/12/09 04:23:54;;;;;;;52.20;26.17;;;;;;;-2.66;81.24;98151.70;2250498;79;21358;-80
2021/12/09 04:26:54;;;;;;;54.07;25.93;;;;;;;-2.67;80.90;98152.90;2217330;79;21020;-79
2021/12/09 04:29:55;;;;;;;52.60;25.40;;;;;;;-2.67;80.84;98157.61;2224891;79;21001;-80
2021/12/09 04:32:55;;;;;;;53.03;27.43;;;;;;;-2.65;80.77;98160.23;2211280;79;21025;-79
2021/12/09 04:35:56;;;;;;;54.37;26.30;;;;;;;-2.58;82.43;98166.18;2204428;78;21025;-79
2021/12/09 04:38:56;;;;;;;56.17;26.17;;;;;;;-2.46;80.77;98150.20;2228394;78;21322;-78
2021/12/09 04:41:57;;;;;;;52.23;25.53;;;;;;;-2.50;80.78;98154.67;2230267;79;21000;-78
2021/12/09 04:44:57;;;;;;;48.10;25.40;;;;;;;-2.42;80.79;98151.23;2249258;78;20985;-79
2021/12/09 04:47:58;;;;;;;55.17;23.67;;;;;;;-2.42;80.94;98138.45;2240272;79;20957;-82
2021/12/09 04:50:58;;;;;;;56.63;27.53;;;;;;;0.34;92.53;98110.13;2248093;78;21013;-81
2021/12/09 04:53:59;;;;;;;57.57;27.57;;;;;;;0.46;74.89;98105.06;2217379;79;21010;-76
2021/12/09 04:56:59;;;;;;;54.63;26.43;;;;;;;-0.53;75.26;98111.20;2240864;79;21052;-78
2021/12/09 05:00:00;;;;;;;51.90;26.43;;;;;;;-1.13;76.44;98119.17;2219430;78;21365;-78
2021/12/09 05:03:07;;;;;;;54.93;28.17;;;;;;;-1.51;77.00;98118.68;2224339;79;21053;-79
2021/12/09 05:06:06;;;;;;;45.60;24.17;;;;;;;-1.74;77.70;98126.52;2229385;79;21024;-79
2021/12/09 05:09:11;;;;;;;48.43;26.27;;;;;;;-1.83;78.21;98127.75;2218930;79;20965;-79
2021/12/09 05:12:09;;;;;;;53.47;26.80;;;;;;;-1.99;78.44;98124.45;2242252;79;21090;-80
2021/12/09 05:15:10;;;;;;;49.67;25.37;;;;;;;-2.19;78.99;98117.48;2229365;79;20982;-79
2021/12/09 05:18:10;;;;;;;67.67;27.30;;;;;;;-2.30;79.24;98123.34;2222392;79;20969;-81
2021/12/09 05:21:12;;;;;;;54.63;26.63;;;;;;;-2.33;79.60;98116.80;2248521;79;21440;-78
2021/12/09 05:24:12;;;;;;;49.77;24.27;;;;;;;-2.36;79.77;98123.03;2226775;79;21041;-78
2021/12/09 05:27:14;;;;;;;56.40;27.43;;;;;;;-2.33;79.94;98119.35;2249448;79;21779;-77
2021/12/09 05:30:14;;;;;;;83.30;36.30;;;;;;;-2.29;80.00;98122.53;2224998;79;20977;-79
2021/12/09 05:33:15;;;;;;;69.63;29.80;;;;;;;-2.27;80.14;98107.27;2219748;78;21353;-80
2021/12/09 05:36:15;;;;;;;59.73;27.33;;;;;;;-2.31;80.34;98098.97;2252747;78;20979;-78
2021/12/09 05:39:16;;;;;;;62.10;29.40;;;;;;;-2.33;80.16;98115.52;2200760;79;21002;-79
2021/12/09 05:42:17;;;;;;;62.03;29.53;;;;;;;-2.32;80.55;98124.06;2221262;79;21013;-79
2021/12/09 05:45:17;;;;;;;63.27;29.60;;;;;;;-2.34;80.40;98121.42;2213419;79;21020;-82
2021/12/09 05:48:18;;;;;;;57.07;26.43;;;;;;;-2.35;80.46;98123.51;2193102;79;21341;-78
2021/12/09 05:51:19;;;;;;;58.73;27.57;;;;;;;-2.33;80.74;98115.52;2221928;79;20989;-79
2021/12/09 05:54:20;;;;;;;63.10;31.60;;;;;;;-2.31;80.74;98120.70;2249426;79;21009;-78
2021/12/09 05:57:20;;;;;;;71.17;30.87;;;;;;;-2.29;80.83;98111.03;2231018;78;20997;-79
2021/12/09 06:00:21;;;;;;;64.10;29.00;;;;;;;-2.35;81.13;98093.23;2212096;78;21036;-78
2021/12/09 06:03:21;;;;;;;60.80;27.97;;;;;;;-2.46;81.51;98104.20;2221291;79;20962;-78
2021/12/09 06:06:22;;;;;;;63.53;29.00;;;;;;;-2.45;81.18;98108.51;2218185;79;21402;-79
2021/12/09 06:09:24;;;;;;;65.40;27.80;;;;;;;-2.40;81.28;98120.24;2215240;79;21337;-79
2021/12/09 06:12:24;;;;;;;57.17;27.57;;;;;;;-2.36;81.26;98121.75;2219884;79;21115;-80
2021/12/09 06:15:25;;;;;;;58.37;28.50;;;;;;;-2.31;81.32;98117.75;2214471;79;21013;-79
2021/12/09 06:18:26;;;;;;;61.20;26.73;;;;;;;-2.32;81.15;98104.89;2219808;79;21005;-80
2021/12/09 06:21:27;;;;;;;65.10;28.57;;;;;;;-2.33;81.29;98092.91;2250212;79;21672;-79
2021/12/09 06:24:28;;;;;;;58.33;25.63;;;;;;;-2.35;81.41;98095.79;2220429;79;21008;-80
2021/12/09 06:27:28;;;;;;;55.80;26.07;;;;;;;-2.37;81.59;98098.27;2215828;78;21067;-80
2021/12/09 06:30:29;;;;;;;65.93;29.10;;;;;;;-2.35;81.41;98106.02;2238430;79;20986;-79
2021/12/09 06:33:29;;;;;;;58.63;26.57;;;;;;;-2.31;81.56;98107.92;2201871;79;20958;-80
2021/12/09 06:36:30;;;;;;;59.93;30.60;;;;;;;-2.32;81.60;98103.61;2247837;79;21389;-79
2021/12/09 06:39:30;;;;;;;54.23;24.57;;;;;;;-2.36;81.51;98105.54;2232558;79;20988;-79
2021/12/09 06:42:31;;;;;;;77.17;29.80;;;;;;;-2.32;81.61;98113.84;2226530;79;20962;-79
2021/12/09 06:45:32;;;;;;;73.73;29.90;;;;;;;-2.29;81.73;98121.66;2249698;79;20966;-79
2021/12/09 06:51:35;;;;;;;55.47;26.00;;;;;;;-2.21;81.34;98105.42;2216437;79;21665;-80
2021/12/09 06:54:35;;;;;;;53.17;27.10;;;;;;;-2.20;81.49;98117.00;2206221;79;21025;-78
2021/12/09 06:57:36;;;;;;;51.60;26.47;;;;;;;-2.16;81.46;98126.58;2213499;79;21004;-78
2021/12/09 07:00:41;;;;;;;50.33;26.60;;;;;;;-2.12;81.47;98112.27;2210256;79;21342;-79
2021/12/09 07:03:39;;;;;;;113.43;28.60;;;;;;;-2.13;81.38;98140.80;2217555;79;21358;-79
2021/12/09 07:06:40;;;;;;;51.80;23.90;;;;;;;-2.10;81.43;98172.03;2249248;79;20961;-78
2021/12/09 07:09:40;;;;;;;53.83;27.10;;;;;;;-2.07;81.29;98160.28;2218572;78;20965;-79
2021/12/09 07:12:41;;;;;;;56.03;26.67;;;;;;;-2.02;81.04;98160.11;2204398;79;20970;-80
2021/12/09 07:15:42;;;;;;;51.57;25.07;;;;;;;-1.97;81.08;98167.61;2210242;78;20992;-80
2021/12/09 07:18:42;;;;;;;47.80;24.40;;;;;;;-1.88;81.03;98163.74;2209600;79;21036;-80
2021/12/09 07:21:43;;;;;;;48.90;24.70;;;;;;;-1.84;80.69;98162.69;2223146;79;21049;-80
2021/12/09 07:24:43;;;;;;;55.50;25.23;;;;;;;-1.83;80.55;98164.45;2238022;78;20992;-80
2021/12/09 07:27:47;;;;;;;50.07;24.57;;;;;;;-1.81;80.53;98134.70;2193685;79;20973;-79
2021/12/09 07:30:47;;;;;;;44.57;22.47;;;;;;;-1.84;80.33;98133.67;2229216;79;21092;-80
2021/12/09 07:33:48;;;;;;;54.77;27.10;;;;;;;-1.81;80.48;98121.91;2230176;79;20974;-79
2021/12/09 07:36:48;;;;;;;53.00;25.60;;;;;;;-1.77;80.34;98134.45;2252801;79;21016;-79
2021/12/09 07:39:49;;;;;;;49.57;24.97;;;;;;;-1.69;80.35;98156.20;2226032;78;20985;-80
2021/12/09 07:42:49;;;;;;;51.97;25.77;;;;;;;-1.59;80.19;98175.03;2236766;79;20966;-80
2021/12/09 07:45:52;;;;;;;47.83;25.47;;;;;;;-1.47;79.96;98190.97;2224297;79;21016;-81
2021/12/09 07:48:52;;;;;;;50.80;26.63;;;;;;;-1.35;79.68;98188.12;2192676;79;21389;-79
2021/12/09 07:51:53;;;;;;;68.67;25.53;;;;;;;-1.30;79.35;98178.57;2206491;79;21027;-79
2021/12/09 07:54:53;;;;;;;44.37;23.47;;;;;;;-1.30;79.23;98165.77;2223360;79;20989;-79
2021/12/09 07:57:54;;;;;;;60.63;26.60;;;;;;;-1.25;79.05;98163.42;2224334;79;21395;-80
2021/12/09 08:00:54;;;;;;;50.47;26.07;;;;;;;-1.29;78.88;98158.56;2244935;79;21009;-81
2021/12/09 08:03:55;;;;;;;48.50;25.17;;;;;;;-1.28;79.03;98163.28;2236837;79;20942;-79
2021/12/09 08:06:56;;;;;;;44.07;23.80;;;;;;;-1.29;79.06;98172.64;2231456;79;20997;-79
2021/12/09 08:09:59;;;;;;;47.17;24.63;;;;;;;-1.32;78.88;98181.86;2226419;79;21009;-79
2021/12/09 08:13:00;;;;;;;48.80;25.10;;;;;;;-1.30;78.83;98186.25;2236276;79;20982;-79
2021/12/09 08:16:01;;;;;;;42.23;23.73;;;;;;;-1.38;78.63;98154.69;2216162;79;21004;-80
2021/12/09 08:19:02;;;;;;;41.33;23.50;;;;;;;-1.46;78.91;98168.41;2231062;78;20970;-80
2021/12/09 08:22:03;;;;;;;49.67;24.53;;;;;;;-1.41;79.20;98168.62;2247582;78;21406;-79
2021/12/09 08:25:03;;;;;;;43.50;23.53;;;;;;;-1.41;79.15;98169.50;2222114;78;21336;-79
2021/12/09 08:28:04;;;;;;;66.43;27.10;;;;;;;-1.33;78.95;98168.19;2213343;79;21044;-80
2021/12/09 08:31:04;;;;;;;47.67;25.40;;;;;;;-1.27;79.07;98159.91;2209332;78;21033;-79
2021/12/09 08:34:05;;;;;;;48.10;25.47;;;;;;;-1.14;78.89;98169.92;2228494;79;21028;-79
2021/12/09 08:37:05;;;;;;;48.97;26.53;;;;;;;-1.06;78.60;98185.64;2228305;79;20950;-79
2021/12/09 08:40:06;;;;;;;50.37;26.03;;;;;;;-1.01;78.70;98188.02;2201390;79;21384;-80
2021/12/09 08:43:07;;;;;;;49.03;24.53;;;;;;;-1.00;78.24;98180.80;2245017;79;20978;-80
2021/12/09 08:46:07;;;;;;;42.90;23.70;;;;;;;-1.02;78.26;98184.98;2196987;78;20960;-80
2021/12/09 08:49:08;;;;;;;44.30;24.57;;;;;;;-1.00;78.03;98173.12;2217393;79;21013;-80
2021/12/09 08:52:08;;;;;;;44.93;23.50;;;;;;;-0.95;78.24;98169.08;2218995;79;20973;-80
2021/12/09 08:55:11;;;;;;;44.47;25.07;;;;;;;-0.92;77.89;98163.22;2223304;79;21428;-79
2021/12/09 08:58:11;;;;;;;47.00;25.33;;;;;;;-0.90;78.04;98159.92;2247663;79;20988;-79
2021/12/09 09:01:15;;;;;;;41.50;25.30;;;;;;;-0.87;77.66;98159.18;2213741;78;21016;-79
2021/12/09 09:04:14;;;;;;;45.30;23.77;;;;;;;-0.95;77.72;98152.43;2193705;79;21008;-80
2021/12/09 09:07:15;;;;;;;47.40;25.70;;;;;;;-0.91;77.90;98139.35;2217578;79;20978;-81
2021/12/09 09:10:15;;;;;;;52.43;25.80;;;;;;;-0.93;77.69;98139.69;2225050;79;20974;-78
2021/12/09 09:13:16;;;;;;;46.30;24.60;;;;;;;-0.97;77.83;98143.80;2219135;79;21369;-79
2021/12/09 09:16:16;;;;;;;50.73;25.90;;;;;;;-1.03;77.74;98139.67;2211648;79;20957;-80
2021/12/09 09:19:17;;;;;;;43.93;22.60;;;;;;;-1.15;78.08;98141.67;2200241;79;21071;-80
2021/12/09 09:22:17;;;;;;;51.20;25.23;;;;;;;-1.21;78.33;98142.27;2248095;79;21036;-79
2021/12/09 09:25:19;;;;;;;49.57;25.93;;;;;;;-1.27;78.62;98139.42;2230959;78;20965;-79
2021/12/09 09:28:22;;;;;;;49.33;25.15;;;;;;;-1.23;78.68;98125.08;2208300;79;21087;-80
2021/12/09 09:31:26;;;;;;;44.97;23.67;;;;;;;-1.22;78.47;98123.88;2200851;79;20966;-78
2021/12/09 09:34:25;;;;;;;53.93;27.30;;;;;;;-1.15;78.53;98131.03;2244619;79;21393;-78
2021/12/09 09:37:25;;;;;;;47.63;24.67;;;;;;;-1.06;78.67;98122.48;2208394;78;20969;-80
2021/12/09 09:40:30;;;;;;;59.13;24.90;;;;;;;-0.97;78.21;98117.77;2243331;79;20961;-79
2021/12/09 09:43:55;;;;;;;47.63;25.80;;;;;;;-0.93;78.21;98108.55;2198837;79;20988;-79
2021/12/09 09:46:45;;;;;;;46.47;24.57;;;;;;;-0.87;77.92;98093.84;2234186;79;21056;-80
2021/12/09 09:49:46;;;;;;;52.30;26.20;;;;;;;-0.84;78.04;98098.73;2222920;78;21681;-80
2021/12/09 09:52:46;;;;;;;49.60;25.57;;;;;;;-0.76;78.04;98094.82;2241106;78;20970;-78
2021/12/09 09:55:49;;;;;;;48.50;25.37;;;;;;;-0.58;77.93;98104.99;2209136;78;21021;-78
2021/12/09 09:58:50;;;;;;;51.20;25.23;;;;;;;-0.47;77.71;98102.89;2231673;79;21339;-81
2021/12/09 10:01:52;;;;;;;49.67;26.50;;;;;;;-0.30;77.63;98093.35;2231025;78;21064;-80
2021/12/09 10:05:02;;;;;;;57.00;24.92;;;;;;;-0.13;77.38;98081.70;2238332;79;21406;-80
2021/12/09 10:08:01;;;;;;;42.67;23.73;;;;;;;-0.02;76.84;98075.31;2231191;79;21080;-80
2021/12/09 10:11:02;;;;;;;45.37;25.07;;;;;;;0.09;76.47;98069.36;2224976;78;21386;-79
2021/12/09 10:14:02;;;;;;;50.63;24.87;;;;;;;0.12;75.98;98073.34;2245786;78;21030;-80
2021/12/09 10:17:03;;;;;;;43.53;23.83;;;;;;;0.18;76.50;98059.88;2240946;78;20973;-80
2021/12/09 10:20:03;;;;;;;51.10;24.97;;;;;;;0.28;75.46;98051.72;2251377;79;20998;-80
2021/12/09 10:23:04;;;;;;;45.17;24.70;;;;;;;0.28;75.79;98056.85;2249801;78;21048;-81
2021/12/09 10:26:04;;;;;;;44.13;25.00;;;;;;;0.44;76.00;98059.61;2235129;78;20957;-80
2021/12/09 10:29:05;;;;;;;46.87;24.53;;;;;;;0.50;75.60;98064.98;2238270;79;21032;-80
2021/12/09 10:32:06;;;;;;;46.23;24.13;;;;;;;0.48;75.52;98044.38;2238321;78;21373;-80
2021/12/09 10:35:06;;;;;;;49.80;23.43;;;;;;;0.46;75.15;98042.16;2233693;79;21000;-80
2021/12/09 10:38:07;;;;;;;45.13;23.67;;;;;;;0.42;74.99;98045.42;2222784;79;20978;-81
2021/12/09 10:41:08;;;;;;;48.87;24.60;;;;;;;0.40;75.41;98035.91;2236477;78;21119;-81
2021/12/09 10:44:10;;;;;;;47.20;23.33;;;;;;;0.32;75.28;98031.77;2195107;79;21349;-80
2021/12/09 10:47:20;;;;;;;44.73;24.27;;;;;;;0.20;75.08;98026.16;2207199;79;21001;-82
2021/12/09 10:50:25;;;;;;;43.77;23.90;;;;;;;0.14;75.83;98035.78;2213280;79;21795;-80
2021/12/09 10:56:21;;;;;;;48.43;23.57;;;;;;;0.02;75.88;98030.57;2173554;79;20997;-81
2021/12/09 10:59:22;;;;;;;49.90;25.10;;;;;;;-0.03;76.27;98055.60;2235929;79;21653;-81
2021/12/09 11:02:23;;;;;;;41.97;22.17;;;;;;;0.03;76.32;98042.59;2226143;79;21688;-81
2021/12/09 11:05:24;;;;;;;47.17;22.23;;;;;;;0.09;76.03;98036.00;2250029;79;20993;-80
2021/12/09 11:08:24;;;;;;;44.20;23.50;;;;;;;0.12;75.82;98033.97;2234275;78;20970;-81
2021/12/09 11:11:27;;;;;;;47.47;23.90;;;;;;;0.16;76.25;98044.82;2221976;79;20990;-80
2021/12/09 11:14:28;;;;;;;58.17;24.83;;;;;;;0.25;76.02;98038.36;2241771;79;21801;-81
2021/12/09 11:17:29;;;;;;;45.77;24.80;;;;;;;0.40;76.22;98029.50;2229031;79;21334;-82
2021/12/09 11:20:29;;;;;;;48.03;24.90;;;;;;;0.52;75.21;98019.69;2245446;79;21009;-80
2021/12/09 11:23:30;;;;;;;50.13;25.70;;;;;;;0.51;75.58;98021.38;2205366;78;21645;-81
2021/12/09 11:26:51;;;;;;;38.50;21.67;;;;;;;0.47;75.19;98005.39;2214353;79;21060;-81
2021/12/09 11:29:55;;;;;;;48.23;24.70;;;;;;;0.47;75.50;97996.41;2208359;79;21064;-80
2021/12/09 11:32:57;;;;;;;46.13;23.53;;;;;;;0.45;75.52;97985.20;2245442;79;21037;-79
2021/12/09 11:35:56;;;;;;;54.67;26.07;;;;;;;0.51;75.74;97989.28;2224980;79;21036;-81
2021/12/09 11:39:05;;;;;;;41.77;23.80;;;;;;;0.53;75.16;97987.65;2200225;79;21709;-81
2021/12/09 11:42:05;;;;;;;43.30;23.23;;;;;;;0.49;75.47;97980.66;2230398;79;21099;-80
2021/12/09 11:45:01;;;;;;;44.37;22.63;;;;;;;0.52;75.89;97985.02;2220798;79;20969;-80
2021/12/09 11:48:01;;;;;;;46.40;23.37;;;;;;;0.51;75.75;98000.84;2192695;79;21012;-81
2021/12/09 11:51:02;;;;;;;42.00;22.73;;;;;;;0.55;75.59;97985.14;2236887;79;20965;-80
2021/12/09 11:54:03;;;;;;;39.83;22.43;;;;;;;0.61;75.73;97984.08;2221378;79;21661;-81
2021/12/09 11:57:15;;;;;;;41.50;22.23;;;;;;;0.57;75.67;97996.34;2212377;79;20937;-81
2021/12/09 12:07:55;;;;;;;42.40;23.23;;;;;;;0.68;75.50;97983.48;2211934;79;21381;-81
2021/12/09 12:13:14;;;;;;;42.10;22.45;;;;;;;0.75;75.78;97967.89;2219436;79;21389;-81
2021/12/09 12:16:14;;;;;;;46.17;23.37;;;;;;;0.69;75.33;97958.27;2247215;78;21030;-80
2021/12/09 12:19:33;;;;;;;42.90;22.53;;;;;;;0.58;75.31;97951.45;2218778;78;21001;-81
2021/12/09 12:22:41;;;;;;;45.33;22.40;;;;;;;0.51;75.85;97939.22;2233346;79;21024;-80
2021/12/09 12:25:32;;;;;;;36.47;19.83;;;;;;;0.48;76.09;97940.80;2213970;79;21043;-80
2021/12/09 12:31:59;;;;;;;41.67;21.23;;;;;;;0.38;75.74;97934.86;2225947;79;20965;-81
2021/12/09 12:34:55;;;;;;;38.77;20.70;;;;;;;0.32;76.24;97947.05;2196365;79;20969;-80
2021/12/09 12:37:56;;;;;;;35.60;18.73;;;;;;;0.30;76.38;97956.39;2236185;79;21049;-80
2021/12/09 12:40:59;;;;;;;38.13;19.97;;;;;;;0.29;76.61;97956.80;2209770;79;21109;-82
2021/12/09 12:43:59;;;;;;;35.27;19.03;;;;;;;0.25;76.90;97970.75;2230608;79;21412;-79
2021/12/09 12:47:13;;;;;;;37.57;19.63;;;;;;;0.18;76.83;97960.66;2223631;78;21024;-81
2021/12/09 12:50:02;;;;;;;38.97;20.87;;;;;;;0.15;77.02;97964.39;2238925;79;21073;-80
2021/12/09 12:56:23;;;;;;;33.43;17.97;;;;;;;0.14;77.27;97957.91;2228522;79;21040;-81
2021/12/09 12:59:28;;;;;;;37.70;21.17;;;;;;;0.16;77.49;97949.86;2209559;79;20950;-80
2021/12/09 13:06:08;;;;;;;46.53;20.00;;;;;;;0.14;77.35;97966.48;2211004;78;21401;-81
2021/12/09 13:09:16;;;;;;;38.23;21.12;;;;;;;0.15;77.45;97969.93;2218723;79;21057;-80
2021/12/09 13:12:06;;;;;;;38.13;20.23;;;;;;;0.18;77.58;97972.61;2202024;79;21024;-79
2021/12/09 13:15:04;;;;;;;38.23;20.20;;;;;;;0.19;77.54;97964.97;2191631;79;20985;-79
2021/12/09 13:18:18;;;;;;;36.27;19.57;;;;;;;0.19;77.48;97968.82;2205660;79;20985;-81
2021/12/09 13:21:07;;;;;;;35.90;20.50;;;;;;;0.19;77.50;97973.08;2242794;79;21025;-82
2021/12/09 13:24:08;;;;;;;34.77;18.30;;;;;;;0.23;77.65;97968.53;2221598;79;20954;-80
2021/12/09 13:30:44;;;;;;;37.30;20.30;;;;;;;0.25;77.37;97970.34;2222416;79;21048;-81
2021/12/09 13:34:07;;;;;;;34.23;19.47;;;;;;;0.22;77.36;97983.05;2193599;79;21752;-81
2021/12/09 13:37:06;;;;;;;36.23;20.47;;;;;;;0.23;77.50;97991.63;2228455;79;20993;-81
2021/12/09 13:46:34;;;;;;;40.73;22.93;;;;;;;0.30;77.36;97985.91;2249094;78;20980;-80
2021/12/09 13:49:43;;;;;;;36.37;20.73;;;;;;;0.30;77.32;97978.21;2235742;79;21448;-80
2021/12/09 13:55:41;;;;;;;39.13;22.07;;;;;;;0.28;77.31;97967.02;2167589;79;21032;-80
2021/12/09 13:58:42;;;;;;;36.03;19.80;;;;;;;0.24;77.15;97946.77;2214157;79;21401;-80
2021/12/09 14:01:43;;;;;;;41.90;21.20;;;;;;;0.20;77.23;97968.00;2226254;79;21333;-80
2021/12/09 14:04:43;;;;;;;42.60;20.43;;;;;;;0.13;77.36;97949.34;2249775;79;21024;-80
2021/12/09 14:07:55;;;;;;;37.70;20.93;;;;;;;0.05;77.34;97963.98;2243150;79;20977;-80
2021/12/09 14:10:50;;;;;;;37.90;20.73;;;;;;;0.02;77.47;97968.99;2238744;79;21092;-80
2021/12/09 14:13:49;;;;;;;41.10;20.57;;;;;;;-0.07;77.23;97959.21;2231720;79;21104;-77
2021/12/09 14:17:00;;;;;;;39.20;20.37;;;;;;;-0.15;77.58;97967.89;2208603;78;21278;-80
2021/12/09 14:19:59;;;;;;;37.20;20.63;;;;;;;-0.16;77.78;97975.13;2217288;79;20997;-80
2021/12/09 14:22:59;;;;;;;40.97;21.93;;;;;;;-0.15;77.87;97985.84;2231246;79;21404;-83
2021/12/09 14:26:00;;;;;;;37.50;21.50;;;;;;;-0.20;77.73;97971.97;2211720;78;21060;-81
2021/12/09 14:29:00;;;;;;;37.33;21.13;;;;;;;-0.23;77.94;97972.25;2209577;79;20997;-81
2021/12/09 14:32:01;;;;;;;37.27;18.57;;;;;;;-0.29;78.03;97970.31;2207058;79;21064;-83
2021/12/09 14:35:01;;;;;;;41.63;21.63;;;;;;;-0.27;78.21;97972.94;2193563;79;21744;-80